Flight Track Log - Related Links

Times and Time Zones

All times are in EDT time to prevent confusion due to time zone crossing. See the UAL4846 flight status page for this flight to view local times or setup timezone preferences in your user account.

Time Position Orientation Groundspeed Altitude Reporting Facility
EDT Latitude Longitude Course Direction KTS MPH feet Rate Location/Type
Sun 01:53:00 PM 40.8734 -73.7063 63° Northeast  Level Estimated
Sun 01:54:00 PM 40.9034 -73.6290 63° Northeast  Level Estimated
Sun 01:55:00 PM 40.9333 -73.5516 63° Northeast  Level Estimated
Sun 01:56:00 PM 40.9632 -73.4742 63° Northeast  Level Estimated
Sun 01:57:00 PM 40.9930 -73.3966 63° Northeast  Level Estimated
Sun 01:58:00 PM 41.0228 -73.3191 63° Northeast  Level Estimated
Sun 01:59:00 PM 41.0525 -73.2414 63° Northeast  Level Estimated
Sun 02:00:00 PM 41.0821 -73.1637 63° Northeast  Level Estimated
Sun 02:01:00 PM 41.1117 -73.0859 63° Northeast  Level Estimated
Sun 02:02:00 PM 41.1413 -73.0080 63° Northeast  Level Estimated
Sun 02:03:00 PM 41.1708 -72.9301 63° Northeast  Level Estimated
Sun 02:04:00 PM 41.2002 -72.8520 63° Northeast  Level Estimated
Sun 02:05:00 PM 41.2296 -72.7740 63° Northeast  Level Estimated
Sun 02:06:00 PM 41.2590 -72.6958 63° Northeast  Level Estimated
Sun 02:07:00 PM 41.2883 -72.6176 63° Northeast  Level Estimated
Sun 02:08:00 PM 41.3175 -72.5393 64° Northeast  Level Estimated
Sun 02:09:00 PM 41.3467 -72.4609 64° Northeast  Level Estimated
Sun 02:10:00 PM 41.3758 -72.3825 64° Northeast  Level Estimated
Sun 02:11:00 PM 41.4049 -72.3040 64° Northeast  Level Estimated
Sun 02:12:00 PM 41.4339 -72.2254 64° Northeast  Level Estimated
Sun 02:13:00 PM 41.4629 -72.1468 64° Northeast  Level Estimated
Sun 02:14:00 PM 41.4918 -72.0681 64° Northeast  Level Estimated
Sun 02:15:00 PM 41.5207 -71.9893 64° Northeast  Level Estimated
Sun 02:16:00 PM 41.5495 -71.9105 64° Northeast  Level Estimated
Sun 02:17:00 PM 41.5783 -71.8315 64° Northeast  Level Estimated
Sun 02:18:00 PM 41.6070 -71.7525 64° Northeast  Level Estimated
Sun 02:19:00 PM 41.6356 -71.6735 64° Northeast  Level Estimated
Sun 02:20:00 PM 41.6642 -71.5944 64° Northeast  Level Estimated
Sun 02:21:00 PM 41.6928 -71.5152 64° Northeast  Level Estimated
Sun 02:22:00 PM 41.7212 -71.4359 64° Northeast  Level Estimated
Sun 02:23:00 PM 41.7240 -71.4282 64° Northeast  Level Estimated
Sun 02:24:00 PM 41.7240 -71.4282 226° Southwest  Level Estimated
Sun 02:25:00 PM 41.7240 -71.4282 226° Southwest  Level Estimated
Sun 02:26:00 PM 41.7240 -71.4282 226° Southwest  Level Estimated
Sun 02:27:00 PM 41.7240 -71.4282 226° Southwest  Level Estimated
Sun 02:28:00 PM 41.7240 -71.4282 226° Southwest  Level Estimated
Sun 02:29:00 PM 41.7240 -71.4282 226° Southwest  Level Estimated
Sun 02:30:00 PM 41.7240 -71.4282 226° Southwest  Level Estimated
Sun 02:31:00 PM 41.7240 -71.4282 226° Southwest  Level Estimated
Sun 02:32:00 PM 41.7240 -71.4282 226° Southwest  Level Estimated
Sun 02:33:00 PM 41.7240 -71.4282 226° Southwest  Level Estimated
Sun 02:34:00 PM 41.7240 -71.4282 226° Southwest  Level Estimated
Sun 02:35:00 PM 41.7240 -71.4282 226° Southwest  Level Estimated
Sun 02:36:00 PM 41.7240 -71.4282 226° Southwest  Level Estimated
Sun 02:37:00 PM 41.7240 -71.4282 226° Southwest  Level Estimated
Sun 02:38:00 PM 41.7240 -71.4282 226° Southwest  Level Estimated

Login

Don't have an account? Register now (free) for customized features, flight alerts, and more!